sensor_id;sensor_type;location;lat;lon;timestamp;temperature;humidity
19968;DHT22;10145;49.152;9.282;2022-08-01T04:01:39;19.00;94.70
19968;DHT22;10145;49.152;9.282;2022-08-01T04:04:04;18.90;95.00
19968;DHT22;10145;49.152;9.282;2022-08-01T04:06:31;18.90;95.10
19968;DHT22;10145;49.152;9.282;2022-08-01T04:08:56;18.80;95.30
19968;DHT22;10145;49.152;9.282;2022-08-01T04:11:25;18.80;95.60
19968;DHT22;10145;49.152;9.282;2022-08-01T04:13:53;18.70;95.60
19968;DHT22;10145;49.152;9.282;2022-08-01T04:16:20;18.70;95.80
19968;DHT22;10145;49.152;9.282;2022-08-01T04:18:45;18.60;95.90
19968;DHT22;10145;49.152;9.282;2022-08-01T04:21:12;18.50;96.20
19968;DHT22;10145;49.152;9.282;2022-08-01T04:23:40;18.50;96.30
19968;DHT22;10145;49.152;9.282;2022-08-01T04:26:07;18.50;96.70
19968;DHT22;10145;49.152;9.282;2022-08-01T04:28:35;18.40;96.90
19968;DHT22;10145;49.152;9.282;2022-08-01T04:31:02;18.40;97.10
19968;DHT22;10145;49.152;9.282;2022-08-01T04:33:30;18.30;97.40
19968;DHT22;10145;49.152;9.282;2022-08-01T04:35:59;18.30;97.60
19968;DHT22;10145;49.152;9.282;2022-08-01T04:38:27;18.30;97.50
19968;DHT22;10145;49.152;9.282;2022-08-01T04:40:54;18.30;97.80
19968;DHT22;10145;49.152;9.282;2022-08-01T04:43:20;18.40;97.90
19968;DHT22;10145;49.152;9.282;2022-08-01T04:45:47;18.30;97.90
19968;DHT22;10145;49.152;9.282;2022-08-01T04:48:15;18.40;98.20
19968;DHT22;10145;49.152;9.282;2022-08-01T04:50:42;18.40;98.30
19968;DHT22;10145;49.152;9.282;2022-08-01T04:53:15;18.40;98.70
19968;DHT22;10145;49.152;9.282;2022-08-01T04:55:42;18.40;98.60
19968;DHT22;10145;49.152;9.282;2022-08-01T04:58:10;18.40;98.70
19968;DHT22;10145;49.152;9.282;2022-08-01T05:00:36;18.50;98.80
19968;DHT22;10145;49.152;9.282;2022-08-01T05:03:01;18.50;98.70
19968;DHT22;10145;49.152;9.282;2022-08-01T05:05:27;18.50;98.80
19968;DHT22;10145;49.152;9.282;2022-08-01T05:07:52;18.60;98.70
19968;DHT22;10145;49.152;9.282;2022-08-01T05:10:18;18.80;98.70
19968;DHT22;10145;49.152;9.282;2022-08-01T05:12:43;18.80;98.60
19968;DHT22;10145;49.152;9.282;2022-08-01T05:15:09;18.90;98.40
19968;DHT22;10145;49.152;9.282;2022-08-01T05:17:35;19.00;98.10
19968;DHT22;10145;49.152;9.282;2022-08-01T05:20:00;19.20;97.80
19968;DHT22;10145;49.152;9.282;2022-08-01T05:22:26;19.30;97.60
19968;DHT22;10145;49.152;9.282;2022-08-01T05:24:52;19.50;97.30
19968;DHT22;10145;49.152;9.282;2022-08-01T05:27:18;19.70;96.80
19968;DHT22;10145;49.152;9.282;2022-08-01T05:29:43;19.80;96.50
19968;DHT22;10145;49.152;9.282;2022-08-01T05:32:09;19.90;96.20
19968;DHT22;10145;49.152;9.282;2022-08-01T05:34:35;20.20;96.00
19968;DHT22;10145;49.152;9.282;2022-08-01T05:37:00;20.30;95.80
19968;DHT22;10145;49.152;9.282;2022-08-01T05:39:26;20.40;95.60
19968;DHT22;10145;49.152;9.282;2022-08-01T05:41:52;20.40;95.50
19968;DHT22;10145;49.152;9.282;2022-08-01T05:44:18;20.60;95.60
19968;DHT22;10145;49.152;9.282;2022-08-01T05:46:43;20.70;95.50
19968;DHT22;10145;49.152;9.282;2022-08-01T05:49:09;20.70;95.20
19968;DHT22;10145;49.152;9.282;2022-08-01T05:51:35;20.70;95.10
19968;DHT22;10145;49.152;9.282;2022-08-01T05:54:00;20.70;95.30
19968;DHT22;10145;49.152;9.282;2022-08-01T05:56:26;20.70;95.30
19968;DHT22;10145;49.152;9.282;2022-08-01T05:58:53;20.70;95.30
19968;DHT22;10145;49.152;9.282;2022-08-01T06:01:18;20.70;95.50
19968;DHT22;10145;49.152;9.282;2022-08-01T06:03:44;20.70;95.50
19968;DHT22;10145;49.152;9.282;2022-08-01T06:06:10;20.70;95.70
19968;DHT22;10145;49.152;9.282;2022-08-01T06:08:36;20.70;95.80
19968;DHT22;10145;49.152;9.282;2022-08-01T06:11:01;20.90;95.60
19968;DHT22;10145;49.152;9.282;2022-08-01T06:13:27;21.00;95.50
19968;DHT22;10145;49.152;9.282;2022-08-01T06:15:52;21.20;95.30
19968;DHT22;10145;49.152;9.282;2022-08-01T06:18:20;21.20;95.10
19968;DHT22;10145;49.152;9.282;2022-08-01T06:20:46;21.30;94.80
19968;DHT22;10145;49.152;9.282;2022-08-01T06:23:11;21.40;94.90
19968;DHT22;10145;49.152;9.282;2022-08-01T06:25:38;21.50;94.80
19968;DHT22;10145;49.152;9.282;2022-08-01T06:28:04;21.50;94.70
19968;DHT22;10145;49.152;9.282;2022-08-01T06:30:29;21.60;94.60
19968;DHT22;10145;49.152;9.282;2022-08-01T06:32:55;21.60;94.30
19968;DHT22;10145;49.152;9.282;2022-08-01T06:35:23;21.80;94.20
19968;DHT22;10145;49.152;9.282;2022-08-01T06:37:49;21.80;94.20
19968;DHT22;10145;49.152;9.282;2022-08-01T06:40:15;21.90;94.10
19968;DHT22;10145;49.152;9.282;2022-08-01T06:42:41;21.90;94.30
19968;DHT22;10145;49.152;9.282;2022-08-01T06:45:10;22.00;93.70
19968;DHT22;10145;49.152;9.282;2022-08-01T06:47:37;22.00;93.80
19968;DHT22;10145;49.152;9.282;2022-08-01T06:50:04;22.10;93.80
19968;DHT22;10145;49.152;9.282;2022-08-01T06:52:30;22.20;93.60
19968;DHT22;10145;49.152;9.282;2022-08-01T06:54:56;22.30;93.70
19968;DHT22;10145;49.152;9.282;2022-08-01T06:57:22;22.30;93.30
19968;DHT22;10145;49.152;9.282;2022-08-01T06:59:47;22.40;93.20
19968;DHT22;10145;49.152;9.282;2022-08-01T07:02:13;22.50;92.90
19968;DHT22;10145;49.152;9.282;2022-08-01T07:04:39;22.50;92.90
19968;DHT22;10145;49.152;9.282;2022-08-01T07:07:04;22.70;92.80
19968;DHT22;10145;49.152;9.282;2022-08-01T07:09:30;22.80;92.70
19968;DHT22;10145;49.152;9.282;2022-08-01T07:11:55;22.90;92.50
19968;DHT22;10145;49.152;9.282;2022-08-01T07:14:22;23.00;92.20
19968;DHT22;10145;49.152;9.282;2022-08-01T07:16:48;23.10;92.20
19968;DHT22;10145;49.152;9.282;2022-08-01T07:19:14;23.10;91.90
19968;DHT22;10145;49.152;9.282;2022-08-01T07:21:40;23.30;92.70
19968;DHT22;10145;49.152;9.282;2022-08-01T07:24:10;23.30;91.90
19968;DHT22;10145;49.152;9.282;2022-08-01T07:26:36;23.50;91.50
19968;DHT22;10145;49.152;9.282;2022-08-01T07:29:01;23.50;91.40
19968;DHT22;10145;49.152;9.282;2022-08-01T07:31:28;23.70;90.90
19968;DHT22;10145;49.152;9.282;2022-08-01T07:33:55;23.80;90.80
19968;DHT22;10145;49.152;9.282;2022-08-01T07:36:20;23.90;91.10
19968;DHT22;10145;49.152;9.282;2022-08-01T07:38:46;23.80;90.60
19968;DHT22;10145;49.152;9.282;2022-08-01T07:41:12;24.30;89.30
19968;DHT22;10145;49.152;9.282;2022-08-01T07:43:38;24.50;89.70
19968;DHT22;10145;49.152;9.282;2022-08-01T07:46:04;24.90;87.70
19968;DHT22;10145;49.152;9.282;2022-08-01T07:48:30;25.20;86.10
19968;DHT22;10145;49.152;9.282;2022-08-01T07:50:56;25.60;85.30
19968;DHT22;10145;49.152;9.282;2022-08-01T07:53:22;25.70;84.20
19968;DHT22;10145;49.152;9.282;2022-08-01T07:55:48;25.60;83.60
19968;DHT22;10145;49.152;9.282;2022-08-01T07:58:14;25.60;83.50
19968;DHT22;10145;49.152;9.282;2022-08-01T08:00:39;25.60;83.30
19968;DHT22;10145;49.152;9.282;2022-08-01T08:03:05;25.60;83.80
19968;DHT22;10145;49.152;9.282;2022-08-01T08:05:31;25.80;82.60
19968;DHT22;10145;49.152;9.282;2022-08-01T08:07:58;25.90;82.50
19968;DHT22;10145;49.152;9.282;2022-08-01T08:10:23;26.00;82.10
19968;DHT22;10145;49.152;9.282;2022-08-01T08:12:49;26.30;82.90
19968;DHT22;10145;49.152;9.282;2022-08-01T08:15:15;26.60;81.30
19968;DHT22;10145;49.152;9.282;2022-08-01T08:17:43;26.60;78.50
19968;DHT22;10145;49.152;9.282;2022-08-01T08:20:09;26.50;78.50
19968;DHT22;10145;49.152;9.282;2022-08-01T08:22:35;26.40;79.60
19968;DHT22;10145;49.152;9.282;2022-08-01T08:25:01;26.60;80.00
19968;DHT22;10145;49.152;9.282;2022-08-01T08:27:27;26.90;79.70
19968;DHT22;10145;49.152;9.282;2022-08-01T08:29:52;27.00;79.10
19968;DHT22;10145;49.152;9.282;2022-08-01T08:32:18;26.90;77.70
19968;DHT22;10145;49.152;9.282;2022-08-01T08:34:44;26.70;79.10
19968;DHT22;10145;49.152;9.282;2022-08-01T08:37:10;26.90;79.40
19968;DHT22;10145;49.152;9.282;2022-08-01T08:39:36;26.80;78.20
19968;DHT22;10145;49.152;9.282;2022-08-01T08:42:10;27.10;76.90
19968;DHT22;10145;49.152;9.282;2022-08-01T08:44:36;27.30;76.40
19968;DHT22;10145;49.152;9.282;2022-08-01T08:47:05;27.50;77.10
19968;DHT22;10145;49.152;9.282;2022-08-01T08:49:32;27.80;75.60
19968;DHT22;10145;49.152;9.282;2022-08-01T08:51:59;27.90;74.80
19968;DHT22;10145;49.152;9.282;2022-08-01T08:54:26;27.80;74.50
19968;DHT22;10145;49.152;9.282;2022-08-01T08:56:53;27.70;75.50
19968;DHT22;10145;49.152;9.282;2022-08-01T08:59:40;27.80;74.80
19968;DHT22;10145;49.152;9.282;2022-08-01T09:02:07;28.00;74.40
19968;DHT22;10145;49.152;9.282;2022-08-01T09:04:35;27.90;73.40
19968;DHT22;10145;49.152;9.282;2022-08-01T09:07:04;28.10;73.00
19968;DHT22;10145;49.152;9.282;2022-08-01T09:09:30;28.10;73.90
19968;DHT22;10145;49.152;9.282;2022-08-01T09:11:55;28.00;73.90
19968;DHT22;10145;49.152;9.282;2022-08-01T09:14:22;28.30;73.00
19968;DHT22;10145;49.152;9.282;2022-08-01T09:17:08;28.50;72.80
19968;DHT22;10145;49.152;9.282;2022-08-01T09:19:41;27.90;73.10
19968;DHT22;10145;49.152;9.282;2022-08-01T09:22:10;27.70;75.00
19968;DHT22;10145;49.152;9.282;2022-08-01T09:24:36;27.60;73.80
19968;DHT22;10145;49.152;9.282;2022-08-01T09:27:16;27.60;74.20
19968;DHT22;10145;49.152;9.282;2022-08-01T09:29:42;27.60;75.60
19968;DHT22;10145;49.152;9.282;2022-08-01T09:32:10;27.20;75.00
19968;DHT22;10145;49.152;9.282;2022-08-01T09:34:35;27.50;74.80
19968;DHT22;10145;49.152;9.282;2022-08-01T09:37:02;28.00;76.00
19968;DHT22;10145;49.152;9.282;2022-08-01T09:39:33;28.00;73.30
19968;DHT22;10145;49.152;9.282;2022-08-01T09:42:19;28.00;73.40
19968;DHT22;10145;49.152;9.282;2022-08-01T09:44:45;27.90;73.10
19968;DHT22;10145;49.152;9.282;2022-08-01T09:47:12;28.10;73.40
19968;DHT22;10145;49.152;9.282;2022-08-01T09:49:39;28.10;74.00
19968;DHT22;10145;49.152;9.282;2022-08-01T09:52:15;28.10;73.30
19968;DHT22;10145;49.152;9.282;2022-08-01T09:54:44;28.70;72.70
19968;DHT22;10145;49.152;9.282;2022-08-01T09:57:18;28.60;72.50
19968;DHT22;10145;49.152;9.282;2022-08-01T09:59:46;29.10;71.70
19968;DHT22;10145;49.152;9.282;2022-08-01T10:02:13;29.20;70.60
19968;DHT22;10145;49.152;9.282;2022-08-01T10:04:50;29.90;70.10
19968;DHT22;10145;49.152;9.282;2022-08-01T10:07:17;30.40;68.50
19968;DHT22;10145;49.152;9.282;2022-08-01T10:09:43;30.70;67.70
19968;DHT22;10145;49.152;9.282;2022-08-01T10:12:12;30.40;67.20
19968;DHT22;10145;49.152;9.282;2022-08-01T10:14:39;30.10;66.80
19968;DHT22;10145;49.152;9.282;2022-08-01T10:17:08;29.60;68.40
19968;DHT22;10145;49.152;9.282;2022-08-01T10:19:35;29.40;69.50
19968;DHT22;10145;49.152;9.282;2022-08-01T10:22:06;29.20;69.40
19968;DHT22;10145;49.152;9.282;2022-08-01T10:24:39;29.10;69.60
19968;DHT22;10145;49.152;9.282;2022-08-01T10:27:08;29.30;69.60
19968;DHT22;10145;49.152;9.282;2022-08-01T10:32:07;29.30;69.90
19968;DHT22;10145;49.152;9.282;2022-08-01T10:34:35;29.60;68.60
19968;DHT22;10145;49.152;9.282;2022-08-01T10:37:03;29.80;68.10
19968;DHT22;10145;49.152;9.282;2022-08-01T10:39:28;30.20;67.10
19968;DHT22;10145;49.152;9.282;2022-08-01T10:41:56;30.30;66.60
19968;DHT22;10145;49.152;9.282;2022-08-01T10:44:25;30.30;67.30
19968;DHT22;10145;49.152;9.282;2022-08-01T10:47:11;29.90;68.10
19968;DHT22;10145;49.152;9.282;2022-08-01T10:50:15;29.80;67.70
19968;DHT22;10145;49.152;9.282;2022-08-01T10:52:41;29.30;68.30
19968;DHT22;10145;49.152;9.282;2022-08-01T10:55:08;29.20;68.50
19968;DHT22;10145;49.152;9.282;2022-08-01T10:57:48;29.30;68.70
19968;DHT22;10145;49.152;9.282;2022-08-01T11:00:21;29.40;68.00
19968;DHT22;10145;49.152;9.282;2022-08-01T11:03:00;29.50;68.40
19968;DHT22;10145;49.152;9.282;2022-08-01T11:05:28;29.60;67.20
19968;DHT22;10145;49.152;9.282;2022-08-01T11:07:55;29.30;67.30
19968;DHT22;10145;49.152;9.282;2022-08-01T11:10:38;29.10;67.50
19968;DHT22;10145;49.152;9.282;2022-08-01T11:13:05;28.90;67.60
19968;DHT22;10145;49.152;9.282;2022-08-01T11:15:34;28.70;69.20
19968;DHT22;10145;49.152;9.282;2022-08-01T11:18:02;28.70;68.80
19968;DHT22;10145;49.152;9.282;2022-08-01T11:20:35;28.90;68.40
19968;DHT22;10145;49.152;9.282;2022-08-01T11:30:40;29.10;71.00
19968;DHT22;10145;49.152;9.282;2022-08-01T11:33:05;29.10;68.10
19968;DHT22;10145;49.152;9.282;2022-08-01T11:35:32;29.10;67.50
19968;DHT22;10145;49.152;9.282;2022-08-01T11:38:25;29.40;67.90
19968;DHT22;10145;49.152;9.282;2022-08-01T11:43:55;31.10;64.10
19968;DHT22;10145;49.152;9.282;2022-08-01T11:49:29;32.60;59.50
19968;DHT22;10145;49.152;9.282;2022-08-01T11:51:59;32.10;60.20
19968;DHT22;10145;49.152;9.282;2022-08-01T11:54:31;32.10;60.50
19968;DHT22;10145;49.152;9.282;2022-08-01T11:56:58;32.10;60.50
19968;DHT22;10145;49.152;9.282;2022-08-01T11:59:24;31.90;61.30
19968;DHT22;10145;49.152;9.282;2022-08-01T12:01:50;31.80;59.60
19968;DHT22;10145;49.152;9.282;2022-08-01T12:04:16;31.30;60.60
19968;DHT22;10145;49.152;9.282;2022-08-01T12:06:41;30.60;61.20
19968;DHT22;10145;49.152;9.282;2022-08-01T12:09:21;30.50;63.40
19968;DHT22;10145;49.152;9.282;2022-08-01T12:11:47;31.00;62.10
19968;DHT22;10145;49.152;9.282;2022-08-01T12:14:20;31.70;59.70
19968;DHT22;10145;49.152;9.282;2022-08-01T12:16:51;31.70;59.20
19968;DHT22;10145;49.152;9.282;2022-08-01T12:19:22;31.90;59.00
19968;DHT22;10145;49.152;9.282;2022-08-01T12:22:11;31.90;60.00
19968;DHT22;10145;49.152;9.282;2022-08-01T12:24:38;32.20;58.30
19968;DHT22;10145;49.152;9.282;2022-08-01T12:27:06;31.90;58.60
19968;DHT22;10145;49.152;9.282;2022-08-01T12:29:42;32.30;58.50
19968;DHT22;10145;49.152;9.282;2022-08-01T12:34:51;32.10;56.70
19968;DHT22;10145;49.152;9.282;2022-08-01T12:37:17;31.40;57.40
19968;DHT22;10145;49.152;9.282;2022-08-01T12:39:44;30.90;59.00
19968;DHT22;10145;49.152;9.282;2022-08-01T12:42:11;30.80;59.70
19968;DHT22;10145;49.152;9.282;2022-08-01T12:44:38;30.70;60.60
19968;DHT22;10145;49.152;9.282;2022-08-01T12:47:05;30.40;61.10
19968;DHT22;10145;49.152;9.282;2022-08-01T12:49:33;30.50;59.80
19968;DHT22;10145;49.152;9.282;2022-08-01T12:52:00;30.60;59.60
19968;DHT22;10145;49.152;9.282;2022-08-01T12:54:27;31.00;60.20
19968;DHT22;10145;49.152;9.282;2022-08-01T12:56:52;31.70;60.70
19968;DHT22;10145;49.152;9.282;2022-08-01T12:59:27;31.90;58.20
19968;DHT22;10145;49.152;9.282;2022-08-01T13:01:55;31.80;58.20
19968;DHT22;10145;49.152;9.282;2022-08-01T13:04:22;31.70;58.70
19968;DHT22;10145;49.152;9.282;2022-08-01T13:06:52;31.50;59.20
19968;DHT22;10145;49.152;9.282;2022-08-01T13:09:18;31.50;59.60
19968;DHT22;10145;49.152;9.282;2022-08-01T13:11:43;31.90;58.10
19968;DHT22;10145;49.152;9.282;2022-08-01T13:14:27;32.60;59.00
19968;DHT22;10145;49.152;9.282;2022-08-01T13:16:52;33.10;57.90
19968;DHT22;10145;49.152;9.282;2022-08-01T13:19:18;33.10;57.50
19968;DHT22;10145;49.152;9.282;2022-08-01T13:21:54;34.20;57.40
19968;DHT22;10145;49.152;9.282;2022-08-01T13:24:27;34.10;55.50
19968;DHT22;10145;49.152;9.282;2022-08-01T13:26:59;34.00;55.00
19968;DHT22;10145;49.152;9.282;2022-08-01T13:29:43;34.10;54.60
19968;DHT22;10145;49.152;9.282;2022-08-01T13:32:14;34.80;53.70
19968;DHT22;10145;49.152;9.282;2022-08-01T13:34:40;34.90;53.00
19968;DHT22;10145;49.152;9.282;2022-08-01T13:37:05;34.40;52.90
19968;DHT22;10145;49.152;9.282;2022-08-01T13:39:31;34.50;53.70
19968;DHT22;10145;49.152;9.282;2022-08-01T13:42:06;34.40;54.30
19968;DHT22;10145;49.152;9.282;2022-08-01T13:44:31;34.60;53.50
19968;DHT22;10145;49.152;9.282;2022-08-01T13:46:57;34.60;53.50
19968;DHT22;10145;49.152;9.282;2022-08-01T13:49:26;36.30;52.20
19968;DHT22;10145;49.152;9.282;2022-08-01T13:51:51;36.50;50.30
19968;DHT22;10145;49.152;9.282;2022-08-01T13:54:17;34.90;51.20
19968;DHT22;10145;49.152;9.282;2022-08-01T13:56:43;33.80;54.00
19968;DHT22;10145;49.152;9.282;2022-08-01T13:59:09;33.00;54.40
19968;DHT22;10145;49.152;9.282;2022-08-01T14:01:37;32.60;55.80
19968;DHT22;10145;49.152;9.282;2022-08-01T14:04:03;32.30;56.90
19968;DHT22;10145;49.152;9.282;2022-08-01T14:06:29;32.00;57.10
19968;DHT22;10145;49.152;9.282;2022-08-01T14:08:56;31.90;58.00
19968;DHT22;10145;49.152;9.282;2022-08-01T14:11:21;33.00;57.80
19968;DHT22;10145;49.152;9.282;2022-08-01T14:13:47;34.00;54.90
19968;DHT22;10145;49.152;9.282;2022-08-01T14:16:12;33.70;53.90
19968;DHT22;10145;49.152;9.282;2022-08-01T14:18:38;33.00;56.00
19968;DHT22;10145;49.152;9.282;2022-08-01T14:21:04;34.20;56.40
19968;DHT22;10145;49.152;9.282;2022-08-01T14:23:29;34.00;54.30
19968;DHT22;10145;49.152;9.282;2022-08-01T14:25:55;32.90;55.40
19968;DHT22;10145;49.152;9.282;2022-08-01T14:28:20;32.50;55.60
19968;DHT22;10145;49.152;9.282;2022-08-01T14:30:46;32.60;56.70
19968;DHT22;10145;49.152;9.282;2022-08-01T14:33:13;33.90;53.70
19968;DHT22;10145;49.152;9.282;2022-08-01T14:35:39;35.80;51.30
19968;DHT22;10145;49.152;9.282;2022-08-01T14:38:04;35.70;50.50
19968;DHT22;10145;49.152;9.282;2022-08-01T14:40:30;35.00;51.20
19968;DHT22;10145;49.152;9.282;2022-08-01T14:42:55;34.10;53.10
19968;DHT22;10145;49.152;9.282;2022-08-01T14:45:21;33.00;55.20
19968;DHT22;10145;49.152;9.282;2022-08-01T14:47:47;32.70;55.50
19968;DHT22;10145;49.152;9.282;2022-08-01T14:50:15;32.40;56.00
19968;DHT22;10145;49.152;9.282;2022-08-01T14:52:42;31.90;56.80
19968;DHT22;10145;49.152;9.282;2022-08-01T14:55:09;31.40;56.90
19968;DHT22;10145;49.152;9.282;2022-08-01T14:57:37;31.00;57.60
19968;DHT22;10145;49.152;9.282;2022-08-01T15:00:05;31.10;58.80
19968;DHT22;10145;49.152;9.282;2022-08-01T15:02:31;31.10;58.30
19968;DHT22;10145;49.152;9.282;2022-08-01T15:04:56;31.60;58.50
19968;DHT22;10145;49.152;9.282;2022-08-01T15:07:22;34.10;56.00
19968;DHT22;10145;49.152;9.282;2022-08-01T15:09:47;36.00;51.10
19968;DHT22;10145;49.152;9.282;2022-08-01T15:12:13;36.60;50.00
19968;DHT22;10145;49.152;9.282;2022-08-01T15:14:39;36.50;49.30
19968;DHT22;10145;49.152;9.282;2022-08-01T15:17:24;35.50;49.80
19968;DHT22;10145;49.152;9.282;2022-08-01T15:19:52;34.10;52.50
19968;DHT22;10145;49.152;9.282;2022-08-01T15:22:19;33.60;53.40
19968;DHT22;10145;49.152;9.282;2022-08-01T15:24:44;33.00;54.70
19968;DHT22;10145;49.152;9.282;2022-08-01T15:27:10;32.50;56.50
19968;DHT22;10145;49.152;9.282;2022-08-01T15:29:36;32.10;56.80
19968;DHT22;10145;49.152;9.282;2022-08-01T15:32:03;31.60;58.50
19968;DHT22;10145;49.152;9.282;2022-08-01T15:34:29;31.20;58.10
19968;DHT22;10145;49.152;9.282;2022-08-01T15:36:55;31.50;58.10
19968;DHT22;10145;49.152;9.282;2022-08-01T15:39:20;32.30;57.10
19968;DHT22;10145;49.152;9.282;2022-08-01T15:41:46;32.90;55.70
19968;DHT22;10145;49.152;9.282;2022-08-01T15:44:12;33.00;55.30
19968;DHT22;10145;49.152;9.282;2022-08-01T15:46:37;33.60;55.20
19968;DHT22;10145;49.152;9.282;2022-08-01T15:49:04;34.20;54.00
19968;DHT22;10145;49.152;9.282;2022-08-01T15:51:31;34.30;52.90
19968;DHT22;10145;49.152;9.282;2022-08-01T15:53:57;33.90;52.80
19968;DHT22;10145;49.152;9.282;2022-08-01T15:56:23;33.80;52.50
19968;DHT22;10145;49.152;9.282;2022-08-01T15:58:49;33.30;52.30
19968;DHT22;10145;49.152;9.282;2022-08-01T16:01:15;33.00;53.70
19968;DHT22;10145;49.152;9.282;2022-08-01T16:03:41;32.60;53.60
19968;DHT22;10145;49.152;9.282;2022-08-01T16:06:06;32.40;54.90
19968;DHT22;10145;49.152;9.282;2022-08-01T16:08:33;32.80;55.10
19968;DHT22;10145;49.152;9.282;2022-08-01T16:10:58;33.10;53.50
19968;DHT22;10145;49.152;9.282;2022-08-01T16:13:24;33.30;52.50
19968;DHT22;10145;49.152;9.282;2022-08-01T16:15:49;33.60;52.60
19968;DHT22;10145;49.152;9.282;2022-08-01T16:18:15;33.20;52.40
19968;DHT22;10145;49.152;9.282;2022-08-01T16:20:41;32.50;54.30
19968;DHT22;10145;49.152;9.282;2022-08-01T16:23:07;32.40;54.10
19968;DHT22;10145;49.152;9.282;2022-08-01T16:25:33;32.80;53.70
19968;DHT22;10145;49.152;9.282;2022-08-01T16:27:58;32.90;53.60
19968;DHT22;10145;49.152;9.282;2022-08-01T16:30:24;32.60;53.00
19968;DHT22;10145;49.152;9.282;2022-08-01T16:32:49;32.20;54.20
19968;DHT22;10145;49.152;9.282;2022-08-01T16:35:15;32.00;54.50
19968;DHT22;10145;49.152;9.282;2022-08-01T16:37:40;31.50;55.10
19968;DHT22;10145;49.152;9.282;2022-08-01T16:40:06;31.00;56.10
19968;DHT22;10145;49.152;9.282;2022-08-01T16:42:33;30.30;57.00
19968;DHT22;10145;49.152;9.282;2022-08-01T16:44:58;29.90;58.90
19968;DHT22;10145;49.152;9.282;2022-08-01T16:47:24;29.30;60.80
19968;DHT22;10145;49.152;9.282;2022-08-01T16:49:50;29.10;60.90
19968;DHT22;10145;49.152;9.282;2022-08-01T16:52:15;28.90;61.30
19968;DHT22;10145;49.152;9.282;2022-08-01T16:54:41;28.80;62.10
19968;DHT22;10145;49.152;9.282;2022-08-01T16:57:06;28.60;62.80
19968;DHT22;10145;49.152;9.282;2022-08-01T16:59:32;28.30;63.60
19968;DHT22;10145;49.152;9.282;2022-08-01T17:01:57;28.30;64.40
19968;DHT22;10145;49.152;9.282;2022-08-01T17:04:23;28.30;64.10
19968;DHT22;10145;49.152;9.282;2022-08-01T17:06:48;28.30;64.50
19968;DHT22;10145;49.152;9.282;2022-08-01T17:09:17;28.30;63.80
19968;DHT22;10145;49.152;9.282;2022-08-01T17:11:42;28.30;63.50
19968;DHT22;10145;49.152;9.282;2022-08-01T17:14:08;28.30;63.50
19968;DHT22;10145;49.152;9.282;2022-08-01T17:16:33;28.20;64.60
19968;DHT22;10145;49.152;9.282;2022-08-01T17:18:59;28.20;65.60
19968;DHT22;10145;49.152;9.282;2022-08-01T17:21:24;28.20;65.40
19968;DHT22;10145;49.152;9.282;2022-08-01T17:23:50;28.10;65.30
19968;DHT22;10145;49.152;9.282;2022-08-01T17:26:15;28.00;65.50
19968;DHT22;10145;49.152;9.282;2022-08-01T17:28:41;28.00;65.80
19968;DHT22;10145;49.152;9.282;2022-08-01T17:31:08;27.90;66.60
19968;DHT22;10145;49.152;9.282;2022-08-01T17:33:33;27.70;66.00
19968;DHT22;10145;49.152;9.282;2022-08-01T17:35:59;27.50;65.20
19968;DHT22;10145;49.152;9.282;2022-08-01T17:38:24;27.40;66.00
19968;DHT22;10145;49.152;9.282;2022-08-01T17:40:50;27.30;66.00
19968;DHT22;10145;49.152;9.282;2022-08-01T17:43:15;27.20;66.20
19968;DHT22;10145;49.152;9.282;2022-08-01T17:45:41;27.20;66.20
19968;DHT22;10145;49.152;9.282;2022-08-01T17:48:08;27.10;66.70
19968;DHT22;10145;49.152;9.282;2022-08-01T17:50:44;27.20;66.80
19968;DHT22;10145;49.152;9.282;2022-08-01T17:53:11;27.20;66.40
19968;DHT22;10145;49.152;9.282;2022-08-01T17:55:36;27.20;66.30
19968;DHT22;10145;49.152;9.282;2022-08-01T17:58:02;27.20;66.80
19968;DHT22;10145;49.152;9.282;2022-08-01T18:00:29;27.10;67.00
19968;DHT22;10145;49.152;9.282;2022-08-01T18:02:55;27.10;67.30
19968;DHT22;10145;49.152;9.282;2022-08-01T18:05:22;26.80;67.90
19968;DHT22;10145;49.152;9.282;2022-08-01T18:07:47;26.80;68.20
19968;DHT22;10145;49.152;9.282;2022-08-01T18:10:13;26.80;69.00
19968;DHT22;10145;49.152;9.282;2022-08-01T18:12:38;26.70;69.90
19968;DHT22;10145;49.152;9.282;2022-08-01T18:15:04;26.60;69.80
19968;DHT22;10145;49.152;9.282;2022-08-01T18:17:31;26.40;69.40
19968;DHT22;10145;49.152;9.282;2022-08-01T18:19:56;26.30;69.60
19968;DHT22;10145;49.152;9.282;2022-08-01T18:22:22;26.30;70.10
19968;DHT22;10145;49.152;9.282;2022-08-01T18:24:47;26.10;70.50
19968;DHT22;10145;49.152;9.282;2022-08-01T18:27:13;26.00;71.20
19968;DHT22;10145;49.152;9.282;2022-08-01T18:29:39;25.90;71.70
19968;DHT22;10145;49.152;9.282;2022-08-01T18:32:04;25.70;72.60
19968;DHT22;10145;49.152;9.282;2022-08-01T18:34:30;25.50;72.60
19968;DHT22;10145;49.152;9.282;2022-08-01T18:36:56;25.50;72.90
19968;DHT22;10145;49.152;9.282;2022-08-01T18:39:21;25.30;73.50
19968;DHT22;10145;49.152;9.282;2022-08-01T18:41:47;25.30;73.60
19968;DHT22;10145;49.152;9.282;2022-08-01T18:44:13;25.20;74.00
19968;DHT22;10145;49.152;9.282;2022-08-01T18:46:40;25.10;75.10
19968;DHT22;10145;49.152;9.282;2022-08-01T18:49:08;25.00;75.30
19968;DHT22;10145;49.152;9.282;2022-08-01T18:51:34;24.90;75.60
19968;DHT22;10145;49.152;9.282;2022-08-01T18:54:00;24.70;76.00
19968;DHT22;10145;49.152;9.282;2022-08-01T18:56:25;24.60;76.20
19968;DHT22;10145;49.152;9.282;2022-08-01T18:58:52;24.50;77.10
19968;DHT22;10145;49.152;9.282;2022-08-01T19:01:19;24.50;77.20
19968;DHT22;10145;49.152;9.282;2022-08-01T19:03:44;24.30;78.00
19968;DHT22;10145;49.152;9.282;2022-08-01T19:06:10;24.20;78.20
19968;DHT22;10145;49.152;9.282;2022-08-01T19:08:35;24.10;78.60
19968;DHT22;10145;49.152;9.282;2022-08-01T19:11:03;24.00;79.40
19968;DHT22;10145;49.152;9.282;2022-08-01T19:13:29;24.00;79.10
19968;DHT22;10145;49.152;9.282;2022-08-01T19:15:56;24.00;79.40
19968;DHT22;10145;49.152;9.282;2022-08-01T19:18:22;24.00;79.60
19968;DHT22;10145;49.152;9.282;2022-08-01T19:20:49;24.00;79.80
19968;DHT22;10145;49.152;9.282;2022-08-01T19:23:15;23.90;80.00
19968;DHT22;10145;49.152;9.282;2022-08-01T19:26:03;23.70;80.60
19968;DHT22;10145;49.152;9.282;2022-08-01T19:28:34;23.70;81.00
19968;DHT22;10145;49.152;9.282;2022-08-01T19:31:04;23.70;81.10
19968;DHT22;10145;49.152;9.282;2022-08-01T19:33:31;23.70;81.30
19968;DHT22;10145;49.152;9.282;2022-08-01T19:36:00;23.60;81.30
19968;DHT22;10145;49.152;9.282;2022-08-01T19:38:26;23.70;81.30
19968;DHT22;10145;49.152;9.282;2022-08-01T19:40:52;23.60;81.60
19968;DHT22;10145;49.152;9.282;2022-08-01T19:43:20;23.60;81.70
19968;DHT22;10145;49.152;9.282;2022-08-01T19:45:48;23.40;82.70
19968;DHT22;10145;49.152;9.282;2022-08-01T19:48:14;23.20;83.20
19968;DHT22;10145;49.152;9.282;2022-08-01T19:50:40;23.20;83.40